Time;durP1;ratioP1;P1;durP2;ratioP2;P2;SDS_P1;SDS_P2;PMS_P1;PMS_P2;Temp;Humidity;BMP_temperature;BMP_pressure;BME280_temperature;BME280_humidity;BME280_pressure;Samples;Min_cycle;Max_cycle;Signal;HPM_P1;HPM_P2
2021/12/05 00:16:49;;;;;;;7.40;1.45;;;3.90;99.90;;;;;;4980736;28;20050;-80
2021/12/05 00:17:44;;;;;;;5.95;1.75;;;3.90;99.90;;;;;;4960635;28;20035;-80
2021/12/05 00:23:17;;;;;;;7.45;1.30;;;3.90;99.90;;;;;;4961703;28;19910;-80
2021/12/05 00:25:47;;;;;;;14.18;1.88;;;4.00;99.90;;;;;;4961258;28;20028;-79
2021/12/05 00:47:14;;;;;;;5.03;1.05;;;4.30;99.90;;;;;;4971236;28;20049;-81
2021/12/05 00:52:44;;;;;;;3.45;0.95;;;4.20;99.90;;;;;;4980209;28;20035;-81
2021/12/05 01:14:09;;;;;;;7.40;0.90;;;4.40;99.90;;;;;;4957500;28;20042;-80
2021/12/05 01:16:31;;;;;;;5.50;1.15;;;4.40;99.90;;;;;;4961017;28;20050;-80
2021/12/05 01:18:59;;;;;;;5.00;1.00;;;4.40;99.90;;;;;;4981299;28;20081;-81
2021/12/05 01:21:26;;;;;;;4.40;0.73;;;4.20;99.90;;;;;;5055621;28;20122;-79
2021/12/05 01:24:02;;;;;;;4.50;0.70;;;4.20;99.90;;;;;;5064505;28;20263;-80
2021/12/05 01:26:48;;;;;;;6.03;0.93;;;4.30;99.90;;;;;;5064041;28;20025;-82
2021/12/05 01:34:30;;;;;;;4.32;0.75;;;4.20;99.90;;;;;;4980491;28;20035;-80
2021/12/05 01:52:58;;;;;;;4.38;0.77;;;4.30;99.90;;;;;;4947124;29;20031;-80
2021/12/05 02:29:32;;;;;;;;;;;4.30;99.90;;;;;;5064890;28;20340;-79
2021/12/05 02:31:09;;;;;;;3.50;1.00;;;4.00;99.90;;;;;;4994286;28;20070;-80
2021/12/05 02:41:34;;;;;;;4.13;0.80;;;3.90;99.90;;;;;;4963118;28;20047;-81
2021/12/05 02:44:06;;;;;;;3.65;0.65;;;3.90;99.90;;;;;;4961620;29;20037;-80
2021/12/05 02:46:32;;;;;;;3.35;0.80;;;3.90;99.90;;;;;;4974086;28;20069;-80
2021/12/05 02:49:03;;;;;;;5.13;0.75;;;3.90;99.90;;;;;;4961632;29;20019;-80
2021/12/05 02:51:30;;;;;;;5.80;1.25;;;4.00;99.90;;;;;;4961285;29;20065;-80
2021/12/05 02:56:34;;;;;;;3.58;0.70;;;4.10;99.90;;;;;;4963438;28;20029;-79
2021/12/05 02:59:08;;;;;;;7.43;1.17;;;4.10;99.90;;;;;;4980878;28;20027;-80
2021/12/05 03:01:42;;;;;;;3.40;1.05;;;4.10;99.90;;;;;;4980202;28;20114;-81
2021/12/05 03:04:09;;;;;;;4.72;0.77;;;4.10;99.90;;;;;;4962044;28;20329;-81
2021/12/05 03:06:49;;;;;;;7.05;1.02;;;4.10;99.90;;;;;;4979597;28;20379;-81
2021/12/05 03:09:34;;;;;;;5.05;1.00;;;4.10;99.90;;;;;;4979454;28;20376;-80
2021/12/05 03:12:19;;;;;;;4.03;0.95;;;4.20;99.90;;;;;;4966206;28;20080;-80
2021/12/05 03:15:11;;;;;;;4.82;1.02;;;4.30;99.90;;;;;;4966909;28;20034;-81
2021/12/05 03:17:38;;;;;;;5.72;1.00;;;4.30;99.90;;;;;;4948567;29;20106;-81
2021/12/05 03:20:06;;;;;;;5.57;1.00;;;4.20;99.90;;;;;;4961232;28;20098;-80
2021/12/05 03:22:32;;;;;;;4.32;1.00;;;4.20;99.90;;;;;;4947820;28;20022;-79
2021/12/05 03:24:59;;;;;;;7.88;1.00;;;4.20;99.90;;;;;;4963729;28;20053;-82
2021/12/05 03:27:27;;;;;;;4.18;1.13;;;4.20;99.90;;;;;;4963430;28;20026;-83
2021/12/05 03:29:53;;;;;;;4.53;0.98;;;4.20;99.90;;;;;;4947467;28;20042;-81
2021/12/05 06:04:02;;;;;;;5.28;0.80;;;2.60;99.90;;;;;;4982860;28;20069;-79
2021/12/05 06:06:30;;;;;;;3.78;0.88;;;2.60;99.90;;;;;;4982156;28;20058;-79
2021/12/05 06:08:56;;;;;;;3.63;0.70;;;2.60;99.90;;;;;;4980014;28;20050;-82
2021/12/05 06:11:24;;;;;;;3.40;0.80;;;2.50;99.90;;;;;;4991634;28;20074;-80
2021/12/05 06:13:51;;;;;;;5.50;1.02;;;2.60;99.90;;;;;;4996168;28;20031;-80
2021/12/05 06:16:17;;;;;;;8.40;1.38;;;2.60;99.90;;;;;;4986943;28;20066;-79
2021/12/05 06:18:44;;;;;;;4.05;0.80;;;2.60;99.90;;;;;;4983722;28;20035;-80
2021/12/05 06:21:11;;;;;;;5.60;0.98;;;2.60;99.90;;;;;;4983037;28;20034;-81
2021/12/05 06:23:38;;;;;;;4.68;0.90;;;2.50;99.90;;;;;;4981314;28;20031;-81
2021/12/05 06:26:07;;;;;;;5.65;0.90;;;2.50;99.90;;;;;;4965329;28;20031;-79
2021/12/05 06:28:44;;;;;;;6.63;0.82;;;2.60;99.90;;;;;;4982819;28;20042;-79
2021/12/05 06:47:28;;;;;;;3.50;0.70;;;2.50;99.90;;;;;;4981466;28;20202;-78
2021/12/05 06:49:55;;;;;;;4.63;0.60;;;2.60;99.90;;;;;;4980610;28;20019;-79
2021/12/05 06:52:22;;;;;;;3.78;0.90;;;2.60;99.90;;;;;;4976947;28;20054;-78
2021/12/05 06:54:47;;;;;;;2.60;0.63;;;2.50;99.90;;;;;;4963961;28;20047;-78
2021/12/05 06:57:14;;;;;;;3.97;0.90;;;2.50;99.90;;;;;;4963108;28;20031;-78
2021/12/05 06:59:41;;;;;;;5.80;1.00;;;2.30;99.90;;;;;;4978627;28;20105;-79
2021/12/05 07:02:09;;;;;;;2.22;0.63;;;2.30;99.90;;;;;;4977175;28;20043;-79
2021/12/05 07:07:26;;;;;;;2.92;0.75;;;2.40;99.90;;;;;;4961424;29;20213;-78
2021/12/05 07:09:53;;;;;;;3.33;0.88;;;2.50;99.90;;;;;;4961439;28;20043;-77
2021/12/05 07:15:09;;;;;;;3.63;1.20;;;2.50;99.90;;;;;;4979540;28;20313;-77
2021/12/05 07:23:35;;;;;;;3.92;0.90;;;2.80;99.90;;;;;;4980907;28;20065;-77
2021/12/05 07:25:47;;;;;;;2.33;0.80;;;2.90;99.90;;;;;;4979155;28;20039;-77
2021/12/05 07:42:04;;;;;;;2.40;0.55;;;3.00;99.90;;;;;;4980567;28;20210;-78
2021/12/05 07:44:31;;;;;;;2.45;0.70;;;3.00;99.90;;;;;;4981905;28;20048;-79
2021/12/05 07:46:57;;;;;;;3.22;0.85;;;2.90;99.90;;;;;;4975969;28;20066;-79
2021/12/05 07:49:23;;;;;;;2.13;0.70;;;2.90;99.90;;;;;;4960831;29;20340;-79
2021/12/05 07:51:50;;;;;;;2.05;0.60;;;2.80;99.90;;;;;;4960313;29;20039;-78
2021/12/05 07:54:32;;;;;;;4.63;0.70;;;2.80;99.90;;;;;;4962052;28;20073;-77
2021/12/05 07:57:24;;;;;;;3.00;0.75;;;2.80;99.90;;;;;;4961116;28;20121;-79
2021/12/05 08:16:19;;;;;;;4.10;0.77;;;2.90;99.90;;;;;;4959905;29;20098;-78
2021/12/05 08:18:45;;;;;;;3.58;0.90;;;3.00;99.90;;;;;;4960413;29;20043;-78
2021/12/05 08:21:12;;;;;;;2.65;0.90;;;3.00;99.90;;;;;;4961546;28;20313;-79
2021/12/05 08:23:39;;;;;;;4.57;0.80;;;3.00;99.90;;;;;;4964128;28;20026;-77
2021/12/05 08:26:09;;;;;;;3.38;0.98;;;3.00;99.90;;;;;;4981018;28;20102;-77
2021/12/05 08:31:25;;;;;;;3.15;0.90;;;3.10;99.90;;;;;;4982624;28;20133;-77
2021/12/05 08:41:44;;;;;;;5.22;1.50;;;3.50;99.90;;;;;;4983395;28;19988;-78
2021/12/05 09:25:39;;;;;;;4.63;1.35;;;4.80;99.90;;;;;;4975957;28;20089;-78
2021/12/05 09:38:39;;;;;;;6.63;1.63;;;5.30;99.90;;;;;;4974611;28;20098;-81
2021/12/05 10:08:51;;;;;;;3.35;0.80;;;7.10;99.90;;;;;;4964025;28;20107;-80
2021/12/05 10:14:26;;;;;;;3.40;0.80;;;7.10;99.90;;;;;;4962461;28;20041;-81
2021/12/05 10:34:25;;;;;;;3.35;0.60;;;8.50;99.90;;;;;;4979015;28;20023;-81
2021/12/05 10:37:25;;;;;;;2.75;0.70;;;8.70;99.90;;;;;;4969986;28;20034;-80
2021/12/05 10:40:08;;;;;;;3.08;0.70;;;8.70;99.90;;;;;;4993608;28;20062;-81
2021/12/05 10:42:52;;;;;;;1.77;0.52;;;8.80;99.90;;;;;;4981514;28;20038;-80
2021/12/05 10:45:29;;;;;;;1.73;0.40;;;8.60;99.90;;;;;;4979880;28;20190;-80
2021/12/05 10:47:58;;;;;;;3.25;0.60;;;8.70;99.90;;;;;;4982048;28;20090;-81
2021/12/05 10:50:45;;;;;;;1.98;0.60;;;9.60;99.90;;;;;;4966127;28;20030;-83
2021/12/05 10:53:30;;;;;;;2.30;0.30;;;10.40;99.90;;;;;;4966943;28;20046;-80
2021/12/05 10:55:58;;;;;;;1.90;0.40;;;10.70;99.90;;;;;;4982272;28;20039;-79
2021/12/05 10:58:47;;;;;;;3.40;0.47;;;11.40;99.90;;;;;;4981633;28;20038;-79
2021/12/05 11:01:23;;;;;;;2.33;0.50;;;11.90;99.90;;;;;;4964039;28;20046;-82
2021/12/05 11:03:54;;;;;;;2.20;0.60;;;12.00;99.90;;;;;;4980911;28;20031;-79
2021/12/05 11:06:22;;;;;;;2.13;0.55;;;11.40;99.90;;;;;;4974575;28;20035;-79
2021/12/05 11:08:57;;;;;;;2.75;0.50;;;11.90;99.90;;;;;;4962688;28;20046;-78
2021/12/05 11:11:28;;;;;;;2.38;0.55;;;12.50;99.50;;;;;;4981392;28;20027;-81
2021/12/05 11:13:55;;;;;;;4.60;0.50;;;12.60;98.90;;;;;;4949065;28;20040;-82
2021/12/05 11:16:37;;;;;;;2.13;0.45;;;12.00;99.90;;;;;;4945864;28;20039;-80
2021/12/05 11:19:13;;;;;;;2.08;0.50;;;12.80;98.90;;;;;;4959474;29;20035;-80
2021/12/05 11:21:47;;;;;;;2.13;0.40;;;13.30;98.80;;;;;;4943822;29;20043;-81
2021/12/05 11:24:23;;;;;;;2.55;0.50;;;13.30;97.50;;;;;;4959425;29;20332;-81
2021/12/05 11:27:33;;;;;;;1.75;0.45;;;12.60;98.60;;;;;;4960210;28;20344;-81
2021/12/05 11:30:30;;;;;;;2.60;0.50;;;12.10;98.90;;;;;;4972279;28;20059;-79
2021/12/05 11:33:19;;;;;;;1.45;0.45;;;10.40;99.90;;;;;;4945742;29;20051;-81
2021/12/05 11:36:02;;;;;;;3.55;0.80;;;9.90;99.90;;;;;;4929454;28;20040;-82
2021/12/05 11:38:35;;;;;;;3.28;0.60;;;10.10;99.90;;;;;;4960201;28;20313;-81
2021/12/05 11:41:08;;;;;;;1.85;0.52;;;9.30;99.90;;;;;;4959878;29;20027;-80
2021/12/05 11:43:44;;;;;;;1.85;0.40;;;9.30;99.90;;;;;;4960230;28;20047;-81
2021/12/05 11:46:19;;;;;;;2.45;0.43;;;9.50;99.90;;;;;;4960967;28;20039;-79
2021/12/05 11:48:51;;;;;;;3.90;0.90;;;10.10;99.90;;;;;;4959971;29;20039;-80
2021/12/05 11:51:33;;;;;;;3.33;0.70;;;10.40;99.90;;;;;;4948486;28;20282;-80
2021/12/05 11:54:09;;;;;;;2.40;0.50;;;9.80;99.90;;;;;;4979287;28;20239;-78
2021/12/05 11:56:46;;;;;;;2.15;0.55;;;9.30;99.90;;;;;;4978829;28;20221;-78
2021/12/05 11:59:20;;;;;;;2.20;0.50;;;8.90;99.90;;;;;;4980126;28;20034;-78
2021/12/05 12:01:56;;;;;;;2.50;0.65;;;8.80;99.90;;;;;;4978792;28;20057;-78
2021/12/05 12:04:25;;;;;;;3.60;0.75;;;8.70;99.90;;;;;;4979246;28;20316;-78
2021/12/05 12:07:31;;;;;;;2.88;0.77;;;9.20;99.90;;;;;;4973309;28;20050;-79
2021/12/05 12:10:14;;;;;;;3.95;0.80;;;9.30;99.90;;;;;;4960296;29;20027;-79
2021/12/05 12:12:42;;;;;;;3.95;1.10;;;9.10;99.90;;;;;;4961090;29;20216;-78
2021/12/05 12:15:08;;;;;;;;;;;8.90;99.90;;;;;;4960544;28;20038;-79
2021/12/05 12:17:34;;;;;;;3.20;0.70;;;8.90;99.90;;;;;;4966697;28;20274;-81
2021/12/05 12:20:01;;;;;;;3.22;0.82;;;8.80;99.90;;;;;;4979146;28;20031;-79
2021/12/05 12:22:28;;;;;;;2.22;0.80;;;9.30;99.90;;;;;;4987102;28;20097;-79
2021/12/05 12:24:58;;;;;;;3.08;0.80;;;10.60;99.90;;;;;;4944087;28;20384;-79
2021/12/05 12:27:24;;;;;;;3.28;0.80;;;12.50;99.90;;;;;;4968774;28;21071;-80
2021/12/05 12:29:52;;;;;;;1.67;0.50;;;13.40;99.20;;;;;;4976589;28;20221;-78
2021/12/05 12:32:23;;;;;;;3.65;1.30;;;12.60;98.60;;;;;;4979051;28;20057;-80
2021/12/05 12:34:58;;;;;;;3.97;0.88;;;11.60;99.90;;;;;;4960089;29;20036;-79
2021/12/05 12:37:24;;;;;;;2.63;0.80;;;10.70;99.90;;;;;;4978208;28;20034;-79
2021/12/05 12:39:52;;;;;;;1.58;0.52;;;10.80;99.90;;;;;;4980363;28;20076;-79
2021/12/05 12:42:33;;;;;;;3.63;0.90;;;11.80;99.90;;;;;;4979440;28;20042;-80
2021/12/05 12:45:16;;;;;;;4.72;1.30;;;11.90;99.90;;;;;;4987402;28;20396;-79
2021/12/05 12:48:03;;;;;;;1.77;0.40;;;11.10;99.90;;;;;;4977207;28;20047;-79
2021/12/05 12:50:36;;;;;;;1.77;0.40;;;10.90;99.90;;;;;;4902144;29;20041;-78
2021/12/05 12:53:27;;;;;;;2.72;0.90;;;10.30;99.90;;;;;;4904635;28;20032;-79
2021/12/05 12:55:58;;;;;;;7.30;2.13;;;10.30;99.90;;;;;;4923227;29;20194;-80
2021/12/05 12:58:43;;;;;;;3.25;1.23;;;9.70;99.90;;;;;;4920222;29;20099;-79
2021/12/05 13:02:25;;;;;;;3.80;0.85;;;9.80;99.90;;;;;;4920017;29;20052;-80
2021/12/05 13:10:03;;;;;;;1.60;0.52;;;9.30;99.90;;;;;;4923303;29;20332;-77
2021/12/05 13:12:48;;;;;;;1.42;0.52;;;8.90;99.90;;;;;;4947760;28;20035;-80
2021/12/05 13:15:20;;;;;;;1.33;0.30;;;8.90;99.90;;;;;;4907693;28;20235;-77
2021/12/05 13:17:56;;;;;;;1.65;0.65;;;9.20;99.90;;;;;;4908382;29;20031;-79
2021/12/05 13:20:47;;;;;;;1.63;0.60;;;9.30;99.90;;;;;;4923550;29;20437;-79
2021/12/05 13:23:16;;;;;;;1.67;0.40;;;10.20;99.90;;;;;;4923567;29;20091;-80
2021/12/05 13:26:02;;;;;;;2.05;0.43;;;10.10;99.90;;;;;;4942473;28;20036;-78
2021/12/05 13:28:33;;;;;;;2.05;0.40;;;9.80;99.90;;;;;;4955665;29;20348;-80
2021/12/05 13:31:02;;;;;;;2.10;0.50;;;9.80;99.90;;;;;;4973889;28;20039;-79
2021/12/05 13:33:33;;;;;;;2.08;0.30;;;10.20;99.90;;;;;;4976604;28;20175;-79
2021/12/05 13:36:34;;;;;;;1.38;0.30;;;9.90;99.90;;;;;;4974592;28;20015;-77
2021/12/05 13:39:00;;;;;;;1.40;0.30;;;9.10;99.90;;;;;;4995370;28;20023;-78
2021/12/05 13:41:29;;;;;;;2.65;1.02;;;8.80;99.90;;;;;;4995448;28;20038;-80
2021/12/05 13:44:01;;;;;;;1.95;0.40;;;8.70;99.90;;;;;;4983578;28;20335;-78
2021/12/05 13:46:39;;;;;;;2.63;0.52;;;8.70;99.90;;;;;;4969272;28;20044;-79
2021/12/05 13:49:32;;;;;;;2.53;0.55;;;9.20;99.90;;;;;;4971051;28;20046;-80
2021/12/05 13:52:36;;;;;;;3.47;0.88;;;9.50;99.90;;;;;;4964065;28;20042;-80
2021/12/05 13:55:40;;;;;;;2.70;0.63;;;9.70;99.90;;;;;;4978506;28;20046;-80
2021/12/05 13:58:40;;;;;;;1.17;0.20;;;10.10;99.90;;;;;;4982344;28;20026;-79
2021/12/05 14:01:18;;;;;;;2.13;0.60;;;9.60;99.90;;;;;;4980859;28;20043;-80
2021/12/05 14:04:08;;;;;;;1.37;0.43;;;9.20;99.90;;;;;;4967235;28;20100;-80
2021/12/05 14:06:54;;;;;;;1.80;0.55;;;8.50;99.90;;;;;;4962322;28;20046;-79
2021/12/05 14:09:30;;;;;;;3.15;0.77;;;8.00;99.90;;;;;;4974332;28;20058;-80
2021/12/05 14:12:05;;;;;;;1.60;0.40;;;7.90;99.90;;;;;;4982788;28;20023;-78
2021/12/05 14:14:34;;;;;;;1.85;0.30;;;7.70;99.90;;;;;;4982516;28;20053;-78
2021/12/05 14:17:05;;;;;;;1.42;0.40;;;7.60;99.90;;;;;;4982224;28;20224;-79
2021/12/05 14:19:35;;;;;;;2.25;0.55;;;7.60;99.90;;;;;;4981977;28;20042;-79
2021/12/05 14:22:04;;;;;;;1.40;0.30;;;8.40;99.90;;;;;;4982036;28;20042;-78
2021/12/05 14:24:37;;;;;;;1.75;0.50;;;9.20;99.90;;;;;;4982563;28;20043;-79
2021/12/05 14:27:08;;;;;;;3.38;0.70;;;9.60;99.90;;;;;;4983779;28;20039;-80
2021/12/05 14:29:39;;;;;;;1.55;0.60;;;10.20;99.90;;;;;;4981251;28;20359;-79
2021/12/05 14:32:23;;;;;;;1.08;0.40;;;10.60;99.90;;;;;;4982042;28;20066;-80
2021/12/05 14:34:51;;;;;;;1.83;0.60;;;11.40;99.90;;;;;;4982521;28;20038;-78
2021/12/05 14:37:21;;;;;;;2.00;0.60;;;12.00;99.90;;;;;;4975659;28;20039;-78
2021/12/05 14:39:48;;;;;;;3.22;0.65;;;11.30;99.90;;;;;;4969535;28;20046;-78
2021/12/05 14:42:18;;;;;;;3.30;0.98;;;11.90;99.90;;;;;;4980104;28;20031;-82
2021/12/05 14:44:47;;;;;;;4.95;1.70;;;11.10;99.90;;;;;;4974271;28;20022;-79
2021/12/05 14:47:17;;;;;;;3.42;1.10;;;10.10;99.90;;;;;;4973869;28;20043;-78
2021/12/05 14:49:50;;;;;;;4.47;1.33;;;9.40;99.90;;;;;;4976421;28;20221;-79
2021/12/05 14:52:26;;;;;;;3.08;1.25;;;8.80;99.90;;;;;;4975651;28;20074;-81
2021/12/05 14:54:54;;;;;;;3.95;1.33;;;8.20;99.90;;;;;;4971294;28;20374;-79
2021/12/05 14:57:26;;;;;;;5.22;1.30;;;7.90;99.90;;;;;;4970535;28;20023;-78
2021/12/05 15:00:07;;;;;;;5.47;1.20;;;7.60;99.90;;;;;;4972478;28;20031;-79
2021/12/05 15:02:34;;;;;;;2.45;0.73;;;7.30;99.90;;;;;;4970486;28;20347;-77
2021/12/05 15:05:03;;;;;;;2.38;0.80;;;7.00;99.90;;;;;;4981464;28;20076;-78
2021/12/05 15:07:29;;;;;;;2.83;1.10;;;6.80;99.90;;;;;;4954077;28;20286;-78
2021/12/05 15:09:57;;;;;;;3.63;1.27;;;6.60;99.90;;;;;;4977582;28;20030;-78
2021/12/05 15:12:29;;;;;;;2.78;1.00;;;6.40;99.90;;;;;;4981177;28;20023;-78
2021/12/05 15:14:58;;;;;;;4.57;1.55;;;6.30;99.90;;;;;;4981802;28;20118;-78
2021/12/05 15:17:28;;;;;;;3.58;1.25;;;6.20;99.90;;;;;;4980611;28;20106;-78
2021/12/05 15:20:00;;;;;;;3.75;1.17;;;6.20;99.90;;;;;;4964552;28;20343;-76
2021/12/05 15:22:28;;;;;;;2.60;1.33;;;6.10;99.90;;;;;;4980792;28;20034;-77
2021/12/05 15:24:56;;;;;;;5.05;1.42;;;6.00;99.90;;;;;;4979917;28;20019;-77
2021/12/05 15:27:26;;;;;;;3.03;1.10;;;6.00;99.90;;;;;;4979880;28;20303;-77
2021/12/05 15:29:55;;;;;;;3.03;1.10;;;6.00;99.90;;;;;;4981272;28;20174;-77
2021/12/05 15:32:25;;;;;;;2.60;0.93;;;5.90;99.90;;;;;;4979672;28;20360;-77
2021/12/05 15:34:56;;;;;;;3.28;0.93;;;5.70;99.90;;;;;;4980388;28;20216;-77
2021/12/05 15:37:23;;;;;;;2.90;0.93;;;5.60;99.90;;;;;;4977820;28;20019;-77
2021/12/05 15:39:54;;;;;;;4.90;1.63;;;5.50;99.90;;;;;;4962237;28;20352;-80
2021/12/05 15:42:30;;;;;;;3.90;1.20;;;5.40;99.90;;;;;;4960279;29;20039;-79
2021/12/05 15:44:59;;;;;;;5.25;1.95;;;5.30;99.90;;;;;;4962215;28;20040;-78
2021/12/05 15:47:28;;;;;;;4.53;2.10;;;5.10;99.90;;;;;;4973217;28;20333;-77
2021/12/05 15:49:57;;;;;;;4.03;1.45;;;5.00;99.90;;;;;;4980766;28;20105;-78
2021/12/05 15:52:43;;;;;;;;;;;4.90;99.90;;;;;;4980933;28;20058;-77
2021/12/05 15:55:17;;;;;;;2.65;0.95;;;4.80;99.90;;;;;;4950067;28;19906;-78
2021/12/05 15:57:53;;;;;;;2.70;1.00;;;4.70;99.90;;;;;;4980355;28;20317;-79
2021/12/05 16:00:42;;;;;;;3.35;1.10;;;4.60;99.90;;;;;;4975902;28;20053;-78
2021/12/05 16:03:18;;;;;;;3.75;1.17;;;4.60;99.90;;;;;;4972158;28;20046;-79
2021/12/05 16:05:54;;;;;;;3.72;1.30;;;4.60;99.90;;;;;;4980565;28;20042;-78
2021/12/05 16:08:20;;;;;;;3.10;1.17;;;4.60;99.90;;;;;;4954506;29;20035;-77
2021/12/05 16:10:49;;;;;;;3.47;1.02;;;4.70;99.90;;;;;;4951254;28;20034;-79
2021/12/05 16:13:24;;;;;;;3.08;1.33;;;4.80;99.90;;;;;;4978582;28;20039;-75
2021/12/05 16:15:55;;;;;;;3.53;1.50;;;4.80;99.90;;;;;;4979995;28;20176;-78
2021/12/05 16:18:31;;;;;;;3.38;1.40;;;4.80;99.90;;;;;;4979084;28;20034;-80
2021/12/05 16:21:05;;;;;;;3.75;1.25;;;4.80;99.90;;;;;;4975851;28;20092;-80
2021/12/05 16:23:37;;;;;;;3.30;1.33;;;4.90;99.90;;;;;;4970804;28;20121;-79
2021/12/05 16:26:13;;;;;;;2.90;1.38;;;4.90;99.90;;;;;;4961763;28;20023;-77
2021/12/05 16:28:53;;;;;;;3.10;1.30;;;5.00;99.90;;;;;;4966748;28;20317;-78
2021/12/05 16:31:27;;;;;;;3.58;1.30;;;5.00;99.90;;;;;;4979272;28;20264;-78
2021/12/05 16:33:57;;;;;;;4.45;2.00;;;4.90;99.90;;;;;;4980249;28;20030;-79
2021/12/05 16:36:29;;;;;;;3.85;1.95;;;4.90;99.90;;;;;;4979075;28;20022;-77
2021/12/05 16:38:55;;;;;;;4.22;1.77;;;4.80;99.90;;;;;;4968135;28;20081;-78
2021/12/05 16:41:25;;;;;;;4.65;1.73;;;4.90;99.90;;;;;;4960757;29;20038;-79
2021/12/05 16:43:53;;;;;;;4.10;1.90;;;4.80;99.90;;;;;;4961312;28;20051;-80
2021/12/05 16:46:26;;;;;;;3.72;1.85;;;4.70;99.90;;;;;;4967617;28;20043;-80
2021/12/05 16:48:53;;;;;;;4.97;2.40;;;4.60;99.90;;;;;;4982540;28;20080;-77
2021/12/05 16:51:54;;;;;;;5.55;2.40;;;4.60;99.90;;;;;;4982172;28;20088;-77
2021/12/05 16:54:34;;;;;;;5.88;2.30;;;4.60;99.90;;;;;;4978988;28;20050;-78
2021/12/05 16:57:13;;;;;;;8.20;3.20;;;4.60;99.90;;;;;;4983841;28;20035;-79
2021/12/05 16:59:48;;;;;;;7.68;3.50;;;4.50;99.90;;;;;;4982998;28;20101;-79
2021/12/05 17:02:27;;;;;;;10.82;3.80;;;4.50;99.90;;;;;;4982899;28;20051;-79
2021/12/05 17:05:21;;;;;;;6.93;3.03;;;4.50;99.90;;;;;;4983283;28;20213;-77
2021/12/05 17:08:13;;;;;;;6.65;3.10;;;4.50;99.90;;;;;;4966478;28;20038;-79
2021/12/05 17:10:38;;;;;;;8.82;3.38;;;4.50;99.90;;;;;;4982178;28;20031;-78
2021/12/05 17:13:19;;;;;;;5.60;2.83;;;4.50;99.90;;;;;;4964776;28;20117;-81
2021/12/05 17:16:05;;;;;;;8.32;3.40;;;4.40;99.90;;;;;;4972601;28;20042;-78
2021/12/05 17:18:43;;;;;;;5.75;3.00;;;4.40;99.90;;;;;;4981726;28;20202;-79
2021/12/05 17:21:22;;;;;;;6.43;3.00;;;4.40;99.90;;;;;;4982890;28;20039;-78
2021/12/05 17:24:29;;;;;;;6.05;3.55;;;4.40;99.90;;;;;;4983353;28;20100;-78
2021/12/05 17:27:01;;;;;;;7.03;3.50;;;4.40;99.90;;;;;;4987820;28;20066;-76
2021/12/05 17:29:35;;;;;;;7.72;4.00;;;4.30;99.90;;;;;;4987291;28;20044;-75
2021/12/05 17:32:10;;;;;;;6.50;3.22;;;4.40;99.90;;;;;;4992907;28;20042;-76
2021/12/05 17:34:58;;;;;;;6.75;3.20;;;4.40;99.90;;;;;;4995433;28;20027;-77
2021/12/05 17:37:26;;;;;;;6.33;3.20;;;4.40;99.90;;;;;;4965408;28;20039;-78
2021/12/05 17:39:53;;;;;;;8.32;3.65;;;4.30;99.90;;;;;;4970000;28;20469;-78
2021/12/05 17:42:22;;;;;;;5.65;3.30;;;4.20;99.90;;;;;;4983037;28;20098;-77
2021/12/05 17:44:52;;;;;;;7.20;3.50;;;4.20;99.90;;;;;;4983169;28;20027;-80
2021/12/05 17:47:18;;;;;;;7.65;3.30;;;4.10;99.90;;;;;;4965062;28;20248;-77
2021/12/05 17:49:49;;;;;;;8.73;3.83;;;4.10;99.90;;;;;;4982210;28;20035;-77
2021/12/05 17:52:16;;;;;;;7.55;3.50;;;4.10;99.90;;;;;;4982854;28;20022;-77
2021/12/05 17:57:18;;;;;;;4.70;3.20;;;3.90;99.90;;;;;;4982966;28;20045;-80
2021/12/05 18:05:16;;;;;;;7.03;3.97;;;3.70;99.90;;;;;;4982917;28;20027;-77
2021/12/05 18:07:43;;;;;;;7.47;4.40;;;3.70;99.90;;;;;;4982171;28;20041;-79
2021/12/05 18:10:11;;;;;;;6.80;3.50;;;3.60;99.90;;;;;;4962262;28;20095;-79
2021/12/05 18:12:37;;;;;;;7.20;4.30;;;3.50;99.90;;;;;;4961668;29;20039;-79
2021/12/05 18:15:12;;;;;;;6.78;3.58;;;3.50;99.90;;;;;;4961669;28;20035;-79
2021/12/05 18:17:40;;;;;;;7.05;3.97;;;3.40;99.90;;;;;;4961444;29;20034;-79
2021/12/05 18:20:09;;;;;;;9.25;4.97;;;3.30;99.90;;;;;;4961571;28;20058;-80
2021/12/05 18:22:35;;;;;;;;;;;3.30;99.90;;;;;;4963126;28;20031;-79
2021/12/05 18:25:03;;;;;;;8.48;4.85;;;3.40;99.90;;;;;;4961504;29;19986;-79
2021/12/05 18:27:30;;;;;;;8.48;4.50;;;3.40;99.90;;;;;;4945206;29;20031;-78
2021/12/05 18:29:57;;;;;;;7.97;4.20;;;3.50;99.90;;;;;;4963118;28;20042;-80
2021/12/05 18:32:26;;;;;;;7.20;4.13;;;3.50;99.90;;;;;;4975263;28;20055;-79
2021/12/05 18:35:04;;;;;;;7.97;4.30;;;3.50;99.90;;;;;;4981771;28;20038;-79
2021/12/05 18:37:30;;;;;;;;;;;3.50;99.90;;;;;;4962262;28;20019;-78
2021/12/05 18:39:56;;;;;;;8.05;4.40;;;3.40;99.90;;;;;;4960759;28;20092;-79
2021/12/05 18:42:23;;;;;;;8.30;4.53;;;3.40;99.90;;;;;;4961455;29;20092;-79
2021/12/05 18:44:55;;;;;;;7.57;3.97;;;3.50;99.90;;;;;;4962747;28;20114;-82
2021/12/05 18:47:23;;;;;;;9.55;4.68;;;3.50;99.90;;;;;;4974212;28;20128;-81
2021/12/05 18:49:50;;;;;;;8.60;4.90;;;3.50;99.90;;;;;;4961073;28;21184;-81
2021/12/05 18:52:18;;;;;;;7.40;4.72;;;3.50;99.90;;;;;;4962623;28;20027;-80
2021/12/05 18:54:45;;;;;;;7.82;4.88;;;3.60;99.90;;;;;;4969831;28;20596;-81
2021/12/05 18:57:18;;;;;;;7.43;5.18;;;3.60;99.90;;;;;;4980627;28;20045;-80
2021/12/05 18:59:57;;;;;;;10.70;5.70;;;3.60;99.90;;;;;;4964306;28;20039;-80
2021/12/05 19:05:13;;;;;;;9.73;5.65;;;3.80;99.90;;;;;;4981984;28;20026;-79
2021/12/05 19:13:49;;;;;;;10.75;6.45;;;3.80;99.90;;;;;;4962239;28;20039;-80
2021/12/05 19:16:16;;;;;;;11.38;6.40;;;3.90;99.90;;;;;;4956454;28;20046;-79
2021/12/05 19:18:42;;;;;;;10.90;6.32;;;3.90;99.90;;;;;;4962228;29;20039;-79
2021/12/05 19:21:08;;;;;;;12.30;6.30;;;3.90;99.90;;;;;;4958785;28;20102;-80
2021/12/05 19:23:36;;;;;;;9.02;5.82;;;4.00;99.90;;;;;;4981387;28;20050;-80
2021/12/05 19:26:06;;;;;;;9.63;6.10;;;4.00;99.90;;;;;;4980137;28;20027;-80
2021/12/05 19:28:32;;;;;;;8.63;5.70;;;4.00;99.90;;;;;;4960213;28;20069;-80
2021/12/05 19:30:59;;;;;;;12.30;6.15;;;4.10;99.90;;;;;;4982938;28;20042;-79
2021/12/05 19:33:26;;;;;;;12.40;6.75;;;4.10;99.90;;;;;;4980072;28;20092;-79
2021/12/05 19:35:53;;;;;;;11.93;6.55;;;4.10;99.90;;;;;;4973583;28;20289;-79
2021/12/05 19:38:24;;;;;;;12.93;7.45;;;4.10;99.90;;;;;;4960769;29;20224;-80
2021/12/05 19:40:52;;;;;;;11.93;6.63;;;4.10;99.90;;;;;;4960441;28;20220;-80
2021/12/05 19:43:18;;;;;;;16.65;7.43;;;4.10;99.90;;;;;;4963087;28;20035;-79
2021/12/05 19:45:44;;;;;;;11.98;6.47;;;4.00;99.90;;;;;;4965524;28;20087;-79
2021/12/05 19:48:10;;;;;;;11.52;6.05;;;4.00;99.90;;;;;;4981043;28;20064;-82
2021/12/05 19:50:41;;;;;;;12.77;6.40;;;3.90;99.90;;;;;;4980489;28;20038;-80
2021/12/05 19:53:08;;;;;;;10.10;6.40;;;3.80;99.90;;;;;;4981331;28;20022;-79
2021/12/05 19:55:34;;;;;;;12.25;6.60;;;3.80;99.90;;;;;;4980403;28;20029;-81
2021/12/05 19:58:00;;;;;;;10.88;6.13;;;3.80;99.90;;;;;;4979503;28;20027;-80
2021/12/05 20:00:28;;;;;;;12.50;6.10;;;3.80;99.90;;;;;;4979630;28;20066;-80
2021/12/05 20:02:54;;;;;;;14.10;6.80;;;3.90;99.90;;;;;;4982105;28;20014;-80
2021/12/05 20:05:24;;;;;;;11.48;6.72;;;3.90;99.90;;;;;;4980942;28;20026;-80
2021/12/05 20:07:51;;;;;;;10.80;6.38;;;4.00;99.90;;;;;;4979958;28;20027;-80
2021/12/05 20:10:22;;;;;;;11.05;6.63;;;4.00;99.90;;;;;;4967009;28;20042;-79
2021/12/05 20:12:49;;;;;;;11.88;5.95;;;4.00;99.90;;;;;;4961675;28;20058;-77
2021/12/05 20:15:16;;;;;;;16.33;8.48;;;4.10;99.90;;;;;;4960352;28;20442;-78
2021/12/05 20:17:42;;;;;;;12.00;6.63;;;4.10;99.90;;;;;;4960278;29;20023;-78
2021/12/05 20:20:09;;;;;;;18.92;11.55;;;4.10;99.90;;;;;;4959773;29;20028;-78
2021/12/05 20:22:37;;;;;;;15.38;8.38;;;4.00;99.90;;;;;;4959905;28;20027;-77
2021/12/05 20:25:06;;;;;;;10.48;7.20;;;4.00;99.90;;;;;;4979535;28;20023;-78
2021/12/05 20:27:34;;;;;;;10.65;6.40;;;4.00;99.90;;;;;;4979618;28;20027;-78
2021/12/05 20:30:00;;;;;;;9.57;6.72;;;4.10;99.90;;;;;;4979025;28;20106;-78
2021/12/05 20:32:26;;;;;;;11.45;6.70;;;4.00;99.90;;;;;;4979777;28;20065;-78
2021/12/05 20:34:52;;;;;;;12.40;7.43;;;4.20;99.90;;;;;;4980418;28;20274;-78
2021/12/05 20:37:26;;;;;;;11.90;7.10;;;4.20;99.90;;;;;;4975907;28;20023;-78
2021/12/05 20:39:52;;;;;;;10.77;6.45;;;4.30;99.90;;;;;;4967991;28;20034;-78
2021/12/05 20:42:18;;;;;;;12.00;7.57;;;4.30;99.90;;;;;;4978681;28;20027;-78
2021/12/05 20:44:47;;;;;;;12.50;7.10;;;4.30;99.90;;;;;;4980427;28;20033;-78
2021/12/05 20:47:13;;;;;;;11.82;6.22;;;4.30;99.90;;;;;;4979256;28;20281;-77
2021/12/05 20:49:39;;;;;;;10.38;6.13;;;4.20;99.90;;;;;;4980394;28;20027;-79
2021/12/05 20:52:08;;;;;;;12.20;6.45;;;4.20;99.90;;;;;;4979100;28;20031;-78
2021/12/05 20:54:35;;;;;;;11.45;6.00;;;4.20;99.90;;;;;;4979190;28;20066;-79
2021/12/05 20:57:13;;;;;;;8.85;5.70;;;4.10;99.90;;;;;;4961178;28;20045;-79
2021/12/05 21:00:11;;;;;;;9.00;5.40;;;4.10;99.90;;;;;;4959397;28;20073;-78
2021/12/05 21:02:41;;;;;;;11.07;6.20;;;4.10;99.90;;;;;;4967355;28;20019;-78
2021/12/05 21:05:13;;;;;;;9.98;5.63;;;4.10;99.90;;;;;;4960632;28;20331;-80
2021/12/05 21:07:47;;;;;;;12.85;7.03;;;4.10;99.90;;;;;;4959922;29;20041;-80
2021/12/05 21:10:14;;;;;;;10.65;6.85;;;4.10;99.90;;;;;;4965180;28;20126;-78